sensor_id;sensor_type;location;lat;lon;timestamp;pressure;altitude;pressure_sealevel;temperature;humidity
75418;BME280;63997;52.112;5.420;2023-08-12T00:00:56;101857.91;;;19.35;91.63
75418;BME280;63997;52.112;5.420;2023-08-12T00:03:22;101862.97;;;19.36;91.73
75418;BME280;63997;52.112;5.420;2023-08-12T00:05:49;101868.00;;;19.38;91.67
75418;BME280;63997;52.112;5.420;2023-08-12T00:08:15;101864.16;;;19.39;91.52
75418;BME280;63997;52.112;5.420;2023-08-12T00:10:42;101862.25;;;19.39;91.83
75418;BME280;63997;52.112;5.420;2023-08-12T00:13:09;101852.69;;;19.42;91.76
75418;BME280;63997;52.112;5.420;2023-08-12T00:15:36;101855.78;;;19.44;91.92
75418;BME280;63997;52.112;5.420;2023-08-12T00:18:02;101861.97;;;19.44;91.82
75418;BME280;63997;52.112;5.420;2023-08-12T00:20:32;101864.66;;;19.44;91.60
75418;BME280;63997;52.112;5.420;2023-08-12T00:22:59;101847.28;;;19.42;91.64
75418;BME280;63997;52.112;5.420;2023-08-12T00:25:25;101851.81;;;19.38;91.44
75418;BME280;63997;52.112;5.420;2023-08-12T00:27:52;101861.03;;;19.37;91.64
75418;BME280;63997;52.112;5.420;2023-08-12T00:30:18;101857.50;;;19.33;91.53
75418;BME280;63997;52.112;5.420;2023-08-12T00:32:45;101842.44;;;19.32;91.27
75418;BME280;63997;52.112;5.420;2023-08-12T00:35:11;101844.28;;;19.27;91.69
75418;BME280;63997;52.112;5.420;2023-08-12T00:37:38;101833.84;;;19.26;91.72
75418;BME280;63997;52.112;5.420;2023-08-12T00:40:05;101840.72;;;19.23;91.64
75418;BME280;63997;52.112;5.420;2023-08-12T00:42:32;101832.97;;;19.22;91.73
75418;BME280;63997;52.112;5.420;2023-08-12T00:44:59;101823.69;;;19.19;92.19
75418;BME280;63997;52.112;5.420;2023-08-12T00:47:26;101825.53;;;19.15;92.20
75418;BME280;63997;52.112;5.420;2023-08-12T00:49:52;101819.69;;;19.13;92.16
75418;BME280;63997;52.112;5.420;2023-08-12T00:52:19;101812.75;;;19.12;92.08
75418;BME280;63997;52.112;5.420;2023-08-12T00:54:46;101812.75;;;19.12;92.07
75418;BME280;63997;52.112;5.420;2023-08-12T00:57:12;101811.19;;;19.11;91.92
75418;BME280;63997;52.112;5.420;2023-08-12T00:59:39;101816.16;;;19.09;91.90
75418;BME280;63997;52.112;5.420;2023-08-12T01:02:06;101808.84;;;19.10;91.64
75418;BME280;63997;52.112;5.420;2023-08-12T01:04:32;101806.84;;;19.07;91.76
75418;BME280;63997;52.112;5.420;2023-08-12T01:06:58;101812.19;;;19.03;91.88
75418;BME280;63997;52.112;5.420;2023-08-12T01:09:25;101809.41;;;18.99;91.92
75418;BME280;63997;52.112;5.420;2023-08-12T01:12:07;101806.59;;;18.96;92.66
75418;BME280;63997;52.112;5.420;2023-08-12T01:17:22;101789.59;;;18.92;92.66
75418;BME280;63997;52.112;5.420;2023-08-12T01:19:49;101794.53;;;18.90;92.88
75418;BME280;63997;52.112;5.420;2023-08-12T01:22:16;101793.72;;;18.86;92.83
75418;BME280;63997;52.112;5.420;2023-08-12T01:24:44;101790.56;;;18.84;92.73
75418;BME280;63997;52.112;5.420;2023-08-12T01:27:12;101789.44;;;18.85;92.78
75418;BME280;63997;52.112;5.420;2023-08-12T01:29:43;101787.88;;;18.84;92.90
75418;BME280;63997;52.112;5.420;2023-08-12T01:32:27;101788.22;;;18.82;92.79
75418;BME280;63997;52.112;5.420;2023-08-12T01:35:09;101784.31;;;18.80;93.03
75418;BME280;63997;52.112;5.420;2023-08-12T01:37:36;101780.13;;;18.82;93.55
75418;BME280;63997;52.112;5.420;2023-08-12T01:40:05;101776.66;;;18.82;93.93
75418;BME280;63997;52.112;5.420;2023-08-12T01:42:32;101776.66;;;18.82;93.94
75418;BME280;63997;52.112;5.420;2023-08-12T01:45:00;101760.91;;;18.84;94.21
75418;BME280;63997;52.112;5.420;2023-08-12T01:47:28;101764.84;;;18.86;94.21
75418;BME280;63997;52.112;5.420;2023-08-12T01:49:55;101767.84;;;18.85;93.94
75418;BME280;63997;52.112;5.420;2023-08-12T01:52:22;101769.00;;;18.84;93.95
75418;BME280;63997;52.112;5.420;2023-08-12T01:54:48;101766.66;;;18.82;93.78
75418;BME280;63997;52.112;5.420;2023-08-12T01:57:15;101764.31;;;18.81;94.08
75418;BME280;63997;52.112;5.420;2023-08-12T01:59:41;101758.16;;;18.80;93.68
75418;BME280;63997;52.112;5.420;2023-08-12T02:02:10;101749.25;;;18.80;93.79
75418;BME280;63997;52.112;5.420;2023-08-12T02:04:37;101748.16;;;18.81;94.43
75418;BME280;63997;52.112;5.420;2023-08-12T02:07:04;101748.94;;;18.81;94.67
75418;BME280;63997;52.112;5.420;2023-08-12T02:09:30;101749.00;;;18.85;94.86
75418;BME280;63997;52.112;5.420;2023-08-12T02:11:57;101742.81;;;18.84;94.39
75418;BME280;63997;52.112;5.420;2023-08-12T02:14:24;101748.22;;;18.84;94.47
75418;BME280;63997;52.112;5.420;2023-08-12T02:16:50;101735.88;;;18.83;94.54
75418;BME280;63997;52.112;5.420;2023-08-12T02:19:17;101735.88;;;18.83;94.06
75418;BME280;63997;52.112;5.420;2023-08-12T02:21:43;101737.44;;;18.84;94.24
75418;BME280;63997;52.112;5.420;2023-08-12T02:24:09;101730.91;;;18.85;94.19
75418;BME280;63997;52.112;5.420;2023-08-12T02:26:37;101734.03;;;18.87;94.39
75418;BME280;63997;52.112;5.420;2023-08-12T02:29:03;101738.28;;;18.88;94.35
75418;BME280;63997;52.112;5.420;2023-08-12T02:31:30;101725.59;;;18.89;94.37
75418;BME280;63997;52.112;5.420;2023-08-12T02:33:57;101725.59;;;18.89;94.57
75418;BME280;63997;52.112;5.420;2023-08-12T02:36:23;101723.31;;;18.91;94.70
75418;BME280;63997;52.112;5.420;2023-08-12T02:38:51;101724.13;;;18.91;94.68
75418;BME280;63997;52.112;5.420;2023-08-12T02:41:17;101716.03;;;18.91;94.60
75418;BME280;63997;52.112;5.420;2023-08-12T02:43:44;101720.28;;;18.92;94.91
75418;BME280;63997;52.112;5.420;2023-08-12T02:46:10;101722.22;;;18.92;95.16
75418;BME280;63997;52.112;5.420;2023-08-12T02:48:37;101723.75;;;18.93;95.22
75418;BME280;63997;52.112;5.420;2023-08-12T02:51:03;101717.22;;;18.94;95.23
75418;BME280;63997;52.112;5.420;2023-08-12T02:53:30;101718.78;;;18.95;95.53
75418;BME280;63997;52.112;5.420;2023-08-12T02:55:56;101715.41;;;18.98;96.14
75418;BME280;63997;52.112;5.420;2023-08-12T02:58:23;101707.72;;;19.00;96.09
75418;BME280;63997;52.112;5.420;2023-08-12T03:00:49;101710.84;;;19.02;96.21
75418;BME280;63997;52.112;5.420;2023-08-12T03:03:16;101696.66;;;19.05;96.44
75418;BME280;63997;52.112;5.420;2023-08-12T03:05:48;101699.00;;;19.07;96.56
75418;BME280;63997;52.112;5.420;2023-08-12T03:08:15;101692.44;;;19.08;96.23
75418;BME280;63997;52.112;5.420;2023-08-12T03:10:42;101686.72;;;19.09;96.52
75418;BME280;63997;52.112;5.420;2023-08-12T03:13:08;101685.59;;;19.10;96.70
75418;BME280;63997;52.112;5.420;2023-08-12T03:15:38;101684.81;;;19.10;96.28
75418;BME280;63997;52.112;5.420;2023-08-12T03:18:05;101684.09;;;19.13;96.36
75418;BME280;63997;52.112;5.420;2023-08-12T03:20:32;101687.56;;;19.13;96.44
75418;BME280;63997;52.112;5.420;2023-08-12T03:22:58;101680.28;;;19.14;96.30
75418;BME280;63997;52.112;5.420;2023-08-12T03:25:25;101677.22;;;19.15;96.31
75418;BME280;63997;52.112;5.420;2023-08-12T03:27:52;101684.16;;;19.16;96.28
75418;BME280;63997;52.112;5.420;2023-08-12T03:30:18;101680.31;;;19.17;96.39
75418;BME280;63997;52.112;5.420;2023-08-12T03:32:45;101678.41;;;19.18;96.42
75418;BME280;63997;52.112;5.420;2023-08-12T03:35:11;101668.84;;;19.20;96.93
75418;BME280;63997;52.112;5.420;2023-08-12T03:37:38;101663.84;;;19.22;96.95
75418;BME280;63997;52.112;5.420;2023-08-12T03:40:05;101664.25;;;19.24;97.16
75418;BME280;63997;52.112;5.420;2023-08-12T03:42:31;101656.59;;;19.26;97.08
75418;BME280;63997;52.112;5.420;2023-08-12T03:44:58;101658.16;;;19.27;97.31
75418;BME280;63997;52.112;5.420;2023-08-12T03:47:24;101654.31;;;19.28;97.08
75418;BME280;63997;52.112;5.420;2023-08-12T03:49:51;101658.56;;;19.29;96.94
75418;BME280;63997;52.112;5.420;2023-08-12T03:52:19;101652.06;;;19.31;97.06
75418;BME280;63997;52.112;5.420;2023-08-12T03:54:48;101645.53;;;19.32;97.32
75418;BME280;63997;52.112;5.420;2023-08-12T03:57:16;101642.84;;;19.32;97.22
75418;BME280;63997;52.112;5.420;2023-08-12T03:59:42;101645.53;;;19.32;97.26
75418;BME280;63997;52.112;5.420;2023-08-12T04:02:09;101639.00;;;19.33;97.12
75418;BME280;63997;52.112;5.420;2023-08-12T04:04:38;101639.00;;;19.33;97.20
75418;BME280;63997;52.112;5.420;2023-08-12T04:07:04;101633.59;;;19.33;97.24
75418;BME280;63997;52.112;5.420;2023-08-12T04:09:31;101621.66;;;19.34;97.34
75418;BME280;63997;52.112;5.420;2023-08-12T04:11:57;101632.09;;;19.35;97.23
75418;BME280;63997;52.112;5.420;2023-08-12T04:14:24;101619.38;;;19.36;97.51
75418;BME280;63997;52.112;5.420;2023-08-12T04:16:50;101622.06;;;19.36;97.60
75418;BME280;63997;52.112;5.420;2023-08-12T04:19:17;101610.50;;;19.35;97.96
75418;BME280;63997;52.112;5.420;2023-08-12T04:21:43;101611.28;;;19.36;98.47
75418;BME280;63997;52.112;5.420;2023-08-12T04:24:13;101611.72;;;19.38;98.71
75418;BME280;63997;52.112;5.420;2023-08-12T04:26:39;101622.16;;;19.39;98.80
75418;BME280;63997;52.112;5.420;2023-08-12T04:29:06;101621.44;;;19.42;98.50
75418;BME280;63997;52.112;5.420;2023-08-12T04:31:33;101622.22;;;19.43;98.59
75418;BME280;63997;52.112;5.420;2023-08-12T04:33:59;101614.53;;;19.45;98.49
75418;BME280;63997;52.112;5.420;2023-08-12T04:36:26;101616.16;;;19.49;98.80
75418;BME280;63997;52.112;5.420;2023-08-12T04:38:53;101610.38;;;19.51;98.93
75418;BME280;63997;52.112;5.420;2023-08-12T04:41:19;101603.13;;;19.55;98.79
75418;BME280;63997;52.112;5.420;2023-08-12T04:43:46;101590.81;;;19.58;98.92
75418;BME280;63997;52.112;5.420;2023-08-12T04:46:12;101582.81;;;19.61;99.05
75418;BME280;63997;52.112;5.420;2023-08-12T04:48:39;101582.91;;;19.65;98.90
75418;BME280;63997;52.112;5.420;2023-08-12T04:51:06;101569.44;;;19.68;98.89
75418;BME280;63997;52.112;5.420;2023-08-12T04:53:33;101569.88;;;19.70;98.82
75418;BME280;63997;52.112;5.420;2023-08-12T04:55:59;101566.81;;;19.72;98.92
75418;BME280;63997;52.112;5.420;2023-08-12T04:58:26;101569.13;;;19.73;98.76
75418;BME280;63997;52.112;5.420;2023-08-12T05:00:52;101564.50;;;19.74;98.87
75418;BME280;63997;52.112;5.420;2023-08-12T05:03:19;101556.06;;;19.75;98.75
75418;BME280;63997;52.112;5.420;2023-08-12T05:05:52;101562.56;;;19.74;98.56
75418;BME280;63997;52.112;5.420;2023-08-12T05:08:18;101559.53;;;19.76;98.70
75418;BME280;63997;52.112;5.420;2023-08-12T05:10:48;101552.22;;;19.76;98.63
75418;BME280;63997;52.112;5.420;2023-08-12T05:13:15;101550.28;;;19.77;98.84
75418;BME280;63997;52.112;5.420;2023-08-12T05:15:46;101561.09;;;19.77;98.35
75418;BME280;63997;52.112;5.420;2023-08-12T05:18:17;101561.88;;;19.77;98.57
75418;BME280;63997;52.112;5.420;2023-08-12T05:20:43;101566.13;;;19.78;98.39
75418;BME280;63997;52.112;5.420;2023-08-12T05:23:12;101565.34;;;19.78;98.50
75418;BME280;63997;52.112;5.420;2023-08-12T05:25:39;101563.41;;;19.78;98.33
75418;BME280;63997;52.112;5.420;2023-08-12T05:28:07;101565.75;;;19.80;98.54
75418;BME280;63997;52.112;5.420;2023-08-12T05:30:35;101563.47;;;19.82;98.65
75418;BME280;63997;52.112;5.420;2023-08-12T05:33:01;101560.41;;;19.84;98.77
75418;BME280;63997;52.112;5.420;2023-08-12T05:35:33;101563.50;;;19.86;99.19
75418;BME280;63997;52.112;5.420;2023-08-12T05:37:59;101565.09;;;19.87;99.13
75418;BME280;63997;52.112;5.420;2023-08-12T05:40:26;101565.88;;;19.87;98.84
75418;BME280;63997;52.112;5.420;2023-08-12T05:42:53;101565.09;;;19.87;98.90
75418;BME280;63997;52.112;5.420;2023-08-12T05:45:21;101563.50;;;19.86;99.08
75418;BME280;63997;52.112;5.420;2023-08-12T05:47:48;101565.09;;;19.87;99.02
75418;BME280;63997;52.112;5.420;2023-08-12T05:50:14;101565.09;;;19.87;98.99
75418;BME280;63997;52.112;5.420;2023-08-12T05:52:43;101567.78;;;19.87;98.98
75418;BME280;63997;52.112;5.420;2023-08-12T05:55:11;101561.25;;;19.88;99.06
75418;BME280;63997;52.112;5.420;2023-08-12T05:57:38;101563.16;;;19.87;99.15
75418;BME280;63997;52.112;5.420;2023-08-12T06:00:06;101557.78;;;19.87;99.34
75418;BME280;63997;52.112;5.420;2023-08-12T06:02:32;101550.44;;;19.88;99.09
75418;BME280;63997;52.112;5.420;2023-08-12T06:04:59;101563.94;;;19.88;99.31
75418;BME280;63997;52.112;5.420;2023-08-12T06:07:27;101558.13;;;19.86;99.08
75418;BME280;63997;52.112;5.420;2023-08-12T06:09:53;101567.34;;;19.85;99.13
75418;BME280;63997;52.112;5.420;2023-08-12T06:12:20;101556.56;;;19.85;99.14
75418;BME280;63997;52.112;5.420;2023-08-12T06:14:46;101553.88;;;19.85;99.39
75418;BME280;63997;52.112;5.420;2023-08-12T06:17:13;101564.28;;;19.86;99.34
75418;BME280;63997;52.112;5.420;2023-08-12T06:19:39;101558.88;;;19.86;99.43
75418;BME280;63997;52.112;5.420;2023-08-12T06:22:06;101557.34;;;19.85;99.39
75418;BME280;63997;52.112;5.420;2023-08-12T06:24:33;101561.19;;;19.84;99.11
75418;BME280;63997;52.112;5.420;2023-08-12T06:26:59;101557.72;;;19.84;99.03
75418;BME280;63997;52.112;5.420;2023-08-12T06:29:28;101558.84;;;19.83;99.08
75418;BME280;63997;52.112;5.420;2023-08-12T06:31:55;101564.97;;;19.79;98.75
75418;BME280;63997;52.112;5.420;2023-08-12T06:34:22;101562.66;;;19.78;98.64
75418;BME280;63997;52.112;5.420;2023-08-12T06:36:49;101570.38;;;19.79;98.91
75418;BME280;63997;52.112;5.420;2023-08-12T06:39:16;101563.41;;;19.78;98.64
75418;BME280;63997;52.112;5.420;2023-08-12T06:41:43;101573.44;;;19.78;98.88
75418;BME280;63997;52.112;5.420;2023-08-12T06:44:09;101561.81;;;19.74;98.53
75418;BME280;63997;52.112;5.420;2023-08-12T06:46:36;101566.44;;;19.73;98.83
75418;BME280;63997;52.112;5.420;2023-08-12T06:49:03;101551.75;;;19.71;99.00
75418;BME280;63997;52.112;5.420;2023-08-12T06:51:30;101555.59;;;19.70;99.13
75418;BME280;63997;52.112;5.420;2023-08-12T06:53:57;101550.19;;;19.70;99.27
75418;BME280;63997;52.112;5.420;2023-08-12T06:56:24;101550.97;;;19.70;99.23
75418;BME280;63997;52.112;5.420;2023-08-12T06:58:51;101538.59;;;19.69;98.98
75418;BME280;63997;52.112;5.420;2023-08-12T07:01:17;101550.97;;;19.70;99.22
75418;BME280;63997;52.112;5.420;2023-08-12T07:03:44;101544.44;;;19.71;98.90
75418;BME280;63997;52.112;5.420;2023-08-12T07:06:10;101537.88;;;19.72;98.84
75418;BME280;63997;52.112;5.420;2023-08-12T07:08:36;101543.69;;;19.74;98.77
75418;BME280;63997;52.112;5.420;2023-08-12T07:11:03;101541.00;;;19.74;98.78
75418;BME280;63997;52.112;5.420;2023-08-12T07:13:30;101539.88;;;19.75;98.70
75418;BME280;63997;52.112;5.420;2023-08-12T07:15:57;101531.34;;;19.73;98.88
75418;BME280;63997;52.112;5.420;2023-08-12T07:18:23;101535.97;;;19.73;99.10
75418;BME280;63997;52.112;5.420;2023-08-12T07:20:50;101522.47;;;19.73;99.02
75418;BME280;63997;52.112;5.420;2023-08-12T07:23:17;101527.09;;;19.72;99.42
75418;BME280;63997;52.112;5.420;2023-08-12T07:25:46;101523.25;;;19.73;99.62
75418;BME280;63997;52.112;5.420;2023-08-12T07:28:12;101524.03;;;19.74;99.95
75418;BME280;63997;52.112;5.420;2023-08-12T07:30:39;101531.78;;;19.75;99.93
75418;BME280;63997;52.112;5.420;2023-08-12T07:33:06;101514.00;;;19.74;99.93
75418;BME280;63997;52.112;5.420;2023-08-12T07:35:34;101520.16;;;19.75;99.79
75418;BME280;63997;52.112;5.420;2023-08-12T07:38:02;101520.59;;;19.77;99.93
75418;BME280;63997;52.112;5.420;2023-08-12T07:40:29;101511.72;;;19.76;99.94
75418;BME280;63997;52.112;5.420;2023-08-12T07:42:56;101504.03;;;19.78;99.75
75418;BME280;63997;52.112;5.420;2023-08-12T07:45:22;101504.44;;;19.80;99.44
75418;BME280;63997;52.112;5.420;2023-08-12T07:47:50;101507.94;;;19.81;99.52
75418;BME280;63997;52.112;5.420;2023-08-12T07:50:16;101506.00;;;19.81;99.07
75418;BME280;63997;52.112;5.420;2023-08-12T07:52:43;101506.41;;;19.84;99.12
75418;BME280;63997;52.112;5.420;2023-08-12T07:55:10;101507.97;;;19.85;99.33
75418;BME280;63997;52.112;5.420;2023-08-12T07:57:39;101507.25;;;19.88;99.34
75418;BME280;63997;52.112;5.420;2023-08-12T08:00:07;101509.19;;;19.91;99.02
75418;BME280;63997;52.112;5.420;2023-08-12T08:02:34;101512.34;;;19.93;99.10
75418;BME280;63997;52.112;5.420;2023-08-12T08:05:01;101517.72;;;19.93;98.72
75418;BME280;63997;52.112;5.420;2023-08-12T08:07:27;101521.22;;;19.93;98.62
75418;BME280;63997;52.112;5.420;2023-08-12T08:09:54;101511.97;;;19.94;98.91
75418;BME280;63997;52.112;5.420;2023-08-12T08:12:20;101515.06;;;19.96;98.92
75418;BME280;63997;52.112;5.420;2023-08-12T08:14:47;101515.44;;;19.95;98.75
75418;BME280;63997;52.112;5.420;2023-08-12T08:17:13;101506.63;;;19.98;98.76
75418;BME280;63997;52.112;5.420;2023-08-12T08:19:40;101512.41;;;20.00;98.53
75418;BME280;63997;52.112;5.420;2023-08-12T08:22:06;101519.38;;;20.01;98.65
75418;BME280;63997;52.112;5.420;2023-08-12T08:24:33;101509.72;;;20.00;98.61
75418;BME280;63997;52.112;5.420;2023-08-12T08:26:59;101516.66;;;20.01;98.75
75418;BME280;63997;52.112;5.420;2023-08-12T08:29:26;101507.84;;;20.04;98.97
75418;BME280;63997;52.112;5.420;2023-08-12T08:31:52;101506.31;;;20.06;99.09
75418;BME280;63997;52.112;5.420;2023-08-12T08:34:19;101507.09;;;20.07;99.12
75418;BME280;63997;52.112;5.420;2023-08-12T08:36:45;101518.72;;;20.11;98.79
75418;BME280;63997;52.112;5.420;2023-08-12T08:39:12;101514.94;;;20.16;98.66
75418;BME280;63997;52.112;5.420;2023-08-12T08:41:40;101519.25;;;20.20;98.31
75418;BME280;63997;52.112;5.420;2023-08-12T08:44:08;101532.75;;;20.20;98.68
75418;BME280;63997;52.112;5.420;2023-08-12T08:46:35;101520.78;;;20.21;98.87
75418;BME280;63997;52.112;5.420;2023-08-12T08:49:04;101522.34;;;20.22;98.82
75418;BME280;63997;52.112;5.420;2023-08-12T08:51:31;101526.25;;;20.28;98.53
75418;BME280;63997;52.112;5.420;2023-08-12T08:54:02;101537.13;;;20.32;98.40
75418;BME280;63997;52.112;5.420;2023-08-12T08:56:33;101536.69;;;20.30;98.29
75418;BME280;63997;52.112;5.420;2023-08-12T08:59:07;101530.13;;;20.27;97.97
75418;BME280;63997;52.112;5.420;2023-08-12T09:01:34;101531.63;;;20.25;98.16
75418;BME280;63997;52.112;5.420;2023-08-12T09:04:02;101537.38;;;20.23;98.14
75418;BME280;63997;52.112;5.420;2023-08-12T09:06:30;101553.84;;;20.11;95.64
75418;BME280;63997;52.112;5.420;2023-08-12T09:08:57;101555.94;;;19.95;94.17
75418;BME280;63997;52.112;5.420;2023-08-12T09:11:23;101563.63;;;19.93;94.35
75418;BME280;63997;52.112;5.420;2023-08-12T09:13:50;101567.41;;;19.88;93.47
75418;BME280;63997;52.112;5.420;2023-08-12T09:16:16;101565.81;;;19.84;93.36
75418;BME280;63997;52.112;5.420;2023-08-12T09:18:43;101576.91;;;19.78;92.93
75418;BME280;63997;52.112;5.420;2023-08-12T09:21:11;101572.56;;;19.70;92.67
75418;BME280;63997;52.112;5.420;2023-08-12T09:23:39;101555.91;;;19.65;91.66
75418;BME280;63997;52.112;5.420;2023-08-12T09:26:17;101547.50;;;19.70;92.59
75418;BME280;63997;52.112;5.420;2023-08-12T09:28:44;101547.16;;;19.75;92.52
75418;BME280;63997;52.112;5.420;2023-08-12T09:31:29;101558.13;;;19.86;91.74
75418;BME280;63997;52.112;5.420;2023-08-12T09:34:03;101562.41;;;19.90;92.38
75418;BME280;63997;52.112;5.420;2023-08-12T09:36:30;101565.91;;;19.91;90.94
75418;BME280;63997;52.112;5.420;2023-08-12T09:38:57;101580.53;;;19.90;91.03
75418;BME280;63997;52.112;5.420;2023-08-12T09:41:26;101582.94;;;19.95;91.29
75418;BME280;63997;52.112;5.420;2023-08-12T09:43:52;101586.09;;;20.00;90.83
75418;BME280;63997;52.112;5.420;2023-08-12T09:46:21;101589.19;;;20.02;89.37
75418;BME280;63997;52.112;5.420;2023-08-12T09:48:50;101597.38;;;20.06;89.82
75418;BME280;63997;52.112;5.420;2023-08-12T09:51:22;101587.34;;;20.06;88.44
75418;BME280;63997;52.112;5.420;2023-08-12T09:53:49;101598.28;;;20.17;89.50
75418;BME280;63997;52.112;5.420;2023-08-12T09:56:18;101603.53;;;20.37;91.13
75418;BME280;63997;52.112;5.420;2023-08-12T09:58:48;101613.63;;;20.40;88.75
75418;BME280;63997;52.112;5.420;2023-08-12T10:01:19;101615.00;;;20.26;87.05
75418;BME280;63997;52.112;5.420;2023-08-12T10:03:49;101614.50;;;20.17;88.03
75418;BME280;63997;52.112;5.420;2023-08-12T10:06:17;101612.56;;;20.18;89.91
75418;BME280;63997;52.112;5.420;2023-08-12T10:08:48;101615.03;;;20.30;88.42
75418;BME280;63997;52.112;5.420;2023-08-12T10:11:15;101611.81;;;20.47;87.40
75418;BME280;63997;52.112;5.420;2023-08-12T10:13:42;101598.09;;;20.63;88.64
75418;BME280;63997;52.112;5.420;2023-08-12T10:16:09;101600.19;;;20.77;86.87
75418;BME280;63997;52.112;5.420;2023-08-12T10:18:38;101586.31;;;20.78;85.93
75418;BME280;63997;52.112;5.420;2023-08-12T10:21:08;101588.41;;;20.96;87.89
75418;BME280;63997;52.112;5.420;2023-08-12T10:23:35;101585.69;;;20.96;85.05
75418;BME280;63997;52.112;5.420;2023-08-12T10:26:05;101598.91;;;21.01;80.82
75418;BME280;63997;52.112;5.420;2023-08-12T10:28:32;101599.78;;;21.12;80.35
75418;BME280;63997;52.112;5.420;2023-08-12T10:31:04;101595.56;;;21.18;82.31
75418;BME280;63997;52.112;5.420;2023-08-12T10:33:38;101598.53;;;21.47;82.02
75418;BME280;63997;52.112;5.420;2023-08-12T10:36:06;101599.44;;;21.61;83.36
75418;BME280;63997;52.112;5.420;2023-08-12T10:38:33;101584.81;;;21.73;82.63
75418;BME280;63997;52.112;5.420;2023-08-12T10:41:16;101586.44;;;21.88;80.91
75418;BME280;63997;52.112;5.420;2023-08-12T10:43:54;101598.06;;;21.85;80.13
75418;BME280;63997;52.112;5.420;2023-08-12T10:46:34;101600.25;;;21.69;81.48
75418;BME280;63997;52.112;5.420;2023-08-12T10:49:08;101598.72;;;21.68;80.20
75418;BME280;63997;52.112;5.420;2023-08-12T10:51:46;101611.41;;;21.60;80.94
75418;BME280;63997;52.112;5.420;2023-08-12T10:54:23;101608.72;;;21.64;81.60
75418;BME280;63997;52.112;5.420;2023-08-12T10:57:09;101598.00;;;21.78;80.47
75418;BME280;63997;52.112;5.420;2023-08-12T11:04:54;101597.84;;;22.12;76.68
75418;BME280;63997;52.112;5.420;2023-08-12T11:07:39;101601.91;;;21.88;76.32
75418;BME280;63997;52.112;5.420;2023-08-12T11:10:19;101602.78;;;22.03;80.06
75418;BME280;63997;52.112;5.420;2023-08-12T11:15:19;101603.75;;;22.28;75.31
75418;BME280;63997;52.112;5.420;2023-08-12T11:17:55;101592.94;;;22.42;79.17
75418;BME280;63997;52.112;5.420;2023-08-12T11:20:21;101594.53;;;22.54;74.74
75418;BME280;63997;52.112;5.420;2023-08-12T11:22:48;101600.00;;;22.68;76.90
75418;BME280;63997;52.112;5.420;2023-08-12T11:25:16;101589.53;;;22.67;72.76
75418;BME280;63997;52.112;5.420;2023-08-12T11:27:47;101592.25;;;22.63;73.84
75418;BME280;63997;52.112;5.420;2023-08-12T11:30:16;101589.25;;;22.90;72.58
75418;BME280;63997;52.112;5.420;2023-08-12T11:32:45;101588.09;;;23.23;75.14
75418;BME280;63997;52.112;5.420;2023-08-12T11:35:13;101597.78;;;23.45;67.70
75418;BME280;63997;52.112;5.420;2023-08-12T11:37:41;101597.41;;;23.47;70.35
75418;BME280;63997;52.112;5.420;2023-08-12T11:40:09;101598.56;;;23.71;72.48
75418;BME280;63997;52.112;5.420;2023-08-12T11:42:41;101591.56;;;23.91;68.60
75418;BME280;63997;52.112;5.420;2023-08-12T11:45:08;101592.69;;;24.05;71.93
75418;BME280;63997;52.112;5.420;2023-08-12T11:47:35;101602.34;;;24.20;66.47
75418;BME280;63997;52.112;5.420;2023-08-12T11:50:06;101585.34;;;23.91;66.28
75418;BME280;63997;52.112;5.420;2023-08-12T11:52:33;101589.25;;;23.86;69.76
75418;BME280;63997;52.112;5.420;2023-08-12T11:55:00;101602.47;;;23.70;70.11
75418;BME280;63997;52.112;5.420;2023-08-12T11:57:27;101601.31;;;23.64;71.44
75418;BME280;63997;52.112;5.420;2023-08-12T12:00:07;101604.41;;;23.66;70.02
75418;BME280;63997;52.112;5.420;2023-08-12T12:02:45;101596.25;;;23.77;69.96
75418;BME280;63997;52.112;5.420;2023-08-12T12:05:13;101591.56;;;23.84;68.66
75418;BME280;63997;52.112;5.420;2023-08-12T12:07:39;101599.72;;;23.81;69.48
75418;BME280;63997;52.112;5.420;2023-08-12T12:10:07;101597.78;;;23.67;67.30
75418;BME280;63997;52.112;5.420;2023-08-12T12:12:34;101598.56;;;23.85;69.79
75418;BME280;63997;52.112;5.420;2023-08-12T12:15:04;101608.59;;;24.10;67.84
75418;BME280;63997;52.112;5.420;2023-08-12T12:17:31;101604.31;;;24.09;69.14
75418;BME280;63997;52.112;5.420;2023-08-12T12:19:59;101597.63;;;24.38;70.34
75418;BME280;63997;52.112;5.420;2023-08-12T12:22:30;101606.00;;;24.69;67.89
75418;BME280;63997;52.112;5.420;2023-08-12T12:25:07;101605.28;;;24.65;62.38
75418;BME280;63997;52.112;5.420;2023-08-12T12:27:34;101599.78;;;24.72;63.69
75418;BME280;63997;52.112;5.420;2023-08-12T12:30:01;101607.53;;;24.73;57.84
75418;BME280;63997;52.112;5.420;2023-08-12T12:32:27;101605.38;;;24.40;56.26
75418;BME280;63997;52.112;5.420;2023-08-12T12:34:54;101606.53;;;24.46;61.12
75418;BME280;63997;52.112;5.420;2023-08-12T12:37:21;101606.47;;;24.57;58.72
75418;BME280;63997;52.112;5.420;2023-08-12T12:39:48;101610.31;;;24.63;61.77
75418;BME280;63997;52.112;5.420;2023-08-12T12:42:14;101618.41;;;24.77;60.91
75418;BME280;63997;52.112;5.420;2023-08-12T12:44:41;101607.59;;;24.66;61.28
75418;BME280;63997;52.112;5.420;2023-08-12T12:47:07;101608.38;;;24.67;58.85
75418;BME280;63997;52.112;5.420;2023-08-12T12:49:37;101610.63;;;24.79;59.13
75418;BME280;63997;52.112;5.420;2023-08-12T12:52:03;101609.31;;;25.05;58.91
75418;BME280;63997;52.112;5.420;2023-08-12T12:54:30;101610.00;;;25.20;59.84
75418;BME280;63997;52.112;5.420;2023-08-12T12:56:57;101610.38;;;25.22;59.65
75418;BME280;63997;52.112;5.420;2023-08-12T12:59:23;101604.38;;;25.41;59.55
75418;BME280;63997;52.112;5.420;2023-08-12T13:01:50;101613.22;;;25.52;56.18
75418;BME280;63997;52.112;5.420;2023-08-12T13:04:16;101603.88;;;25.53;59.51